sensor_id;sensor_type;location;lat;lon;timestamp;temperature;humidity
35647;DHT22;28680;45.642;13.756;2024-01-30T00:31:28;6.00;99.90
35647;DHT22;28680;45.642;13.756;2024-01-30T00:33:55;6.10;99.90
35647;DHT22;28680;45.642;13.756;2024-01-30T00:36:20;6.00;99.90
35647;DHT22;28680;45.642;13.756;2024-01-30T00:38:46;6.00;99.90
35647;DHT22;28680;45.642;13.756;2024-01-30T00:41:13;6.00;99.90
35647;DHT22;28680;45.642;13.756;2024-01-30T00:43:39;5.90;99.90
35647;DHT22;28680;45.642;13.756;2024-01-30T00:46:05;5.90;99.90
35647;DHT22;28680;45.642;13.756;2024-01-30T00:48:30;5.90;99.90
35647;DHT22;28680;45.642;13.756;2024-01-30T00:50:56;5.90;99.90
35647;DHT22;28680;45.642;13.756;2024-01-30T00:53:22;5.90;99.90
35647;DHT22;28680;45.642;13.756;2024-01-30T00:55:48;5.90;99.90
35647;DHT22;28680;45.642;13.756;2024-01-30T00:58:13;5.90;99.90
35647;DHT22;28680;45.642;13.756;2024-01-30T01:00:39;5.90;99.90
35647;DHT22;28680;45.642;13.756;2024-01-30T01:03:05;5.90;99.90
35647;DHT22;28680;45.642;13.756;2024-01-30T01:05:31;5.90;99.90
35647;DHT22;28680;45.642;13.756;2024-01-30T01:07:57;5.90;99.90
35647;DHT22;28680;45.642;13.756;2024-01-30T01:10:23;5.80;99.90
35647;DHT22;28680;45.642;13.756;2024-01-30T01:12:49;5.80;99.90
35647;DHT22;28680;45.642;13.756;2024-01-30T01:15:15;5.70;99.90
35647;DHT22;28680;45.642;13.756;2024-01-30T01:17:41;5.70;99.90
35647;DHT22;28680;45.642;13.756;2024-01-30T01:20:07;5.60;99.90
35647;DHT22;28680;45.642;13.756;2024-01-30T01:22:34;5.60;99.90
35647;DHT22;28680;45.642;13.756;2024-01-30T01:25:00;5.60;99.90
35647;DHT22;28680;45.642;13.756;2024-01-30T01:27:26;5.50;99.90
35647;DHT22;28680;45.642;13.756;2024-01-30T01:29:53;5.50;99.90
35647;DHT22;28680;45.642;13.756;2024-01-30T01:32:19;5.50;99.90
35647;DHT22;28680;45.642;13.756;2024-01-30T01:34:45;5.40;99.90
35647;DHT22;28680;45.642;13.756;2024-01-30T01:37:11;5.40;99.90
35647;DHT22;28680;45.642;13.756;2024-01-30T01:39:37;5.40;99.90
35647;DHT22;28680;45.642;13.756;2024-01-30T01:42:03;5.40;99.90
35647;DHT22;28680;45.642;13.756;2024-01-30T01:44:28;5.40;99.90
35647;DHT22;28680;45.642;13.756;2024-01-30T01:46:55;5.40;99.90
35647;DHT22;28680;45.642;13.756;2024-01-30T01:49:22;5.40;99.90
35647;DHT22;28680;45.642;13.756;2024-01-30T01:51:50;5.40;99.90
35647;DHT22;28680;45.642;13.756;2024-01-30T01:54:17;5.50;99.90
35647;DHT22;28680;45.642;13.756;2024-01-30T01:56:43;5.40;99.90
35647;DHT22;28680;45.642;13.756;2024-01-30T01:59:09;5.40;99.90
35647;DHT22;28680;45.642;13.756;2024-01-30T02:01:39;5.30;99.90
35647;DHT22;28680;45.642;13.756;2024-01-30T02:04:07;5.20;99.90
35647;DHT22;28680;45.642;13.756;2024-01-30T02:06:35;5.10;99.90
35647;DHT22;28680;45.642;13.756;2024-01-30T02:09:01;5.00;99.90
35647;DHT22;28680;45.642;13.756;2024-01-30T02:11:27;5.00;99.90
35647;DHT22;28680;45.642;13.756;2024-01-30T02:13:53;5.00;99.90
35647;DHT22;28680;45.642;13.756;2024-01-30T02:16:19;5.00;99.90
35647;DHT22;28680;45.642;13.756;2024-01-30T02:18:45;5.20;99.90
35647;DHT22;28680;45.642;13.756;2024-01-30T02:21:17;5.20;99.90
35647;DHT22;28680;45.642;13.756;2024-01-30T02:23:44;5.30;99.90
35647;DHT22;28680;45.642;13.756;2024-01-30T02:26:10;5.30;99.90
35647;DHT22;28680;45.642;13.756;2024-01-30T02:28:37;5.30;99.90
35647;DHT22;28680;45.642;13.756;2024-01-30T02:31:04;5.30;99.90
35647;DHT22;28680;45.642;13.756;2024-01-30T02:33:30;5.30;99.90
35647;DHT22;28680;45.642;13.756;2024-01-30T02:35:56;5.20;99.90
35647;DHT22;28680;45.642;13.756;2024-01-30T02:38:21;5.10;99.90
35647;DHT22;28680;45.642;13.756;2024-01-30T02:40:49;5.00;99.90
35647;DHT22;28680;45.642;13.756;2024-01-30T02:43:16;5.00;99.90
35647;DHT22;28680;45.642;13.756;2024-01-30T02:45:42;4.90;99.90
35647;DHT22;28680;45.642;13.756;2024-01-30T02:48:08;4.90;99.90
35647;DHT22;28680;45.642;13.756;2024-01-30T02:50:34;4.90;99.90
35647;DHT22;28680;45.642;13.756;2024-01-30T02:53:00;4.90;99.90
35647;DHT22;28680;45.642;13.756;2024-01-30T02:55:26;4.90;99.90
35647;DHT22;28680;45.642;13.756;2024-01-30T02:57:51;5.00;99.90
35647;DHT22;28680;45.642;13.756;2024-01-30T03:00:19;5.00;99.90
35647;DHT22;28680;45.642;13.756;2024-01-30T03:02:45;5.00;99.90
35647;DHT22;28680;45.642;13.756;2024-01-30T03:05:11;5.00;99.90
35647;DHT22;28680;45.642;13.756;2024-01-30T03:07:36;5.00;99.90
35647;DHT22;28680;45.642;13.756;2024-01-30T03:10:04;5.00;99.90
35647;DHT22;28680;45.642;13.756;2024-01-30T03:12:30;5.10;99.90
35647;DHT22;28680;45.642;13.756;2024-01-30T03:14:56;5.10;99.90
35647;DHT22;28680;45.642;13.756;2024-01-30T03:17:21;5.10;99.90
35647;DHT22;28680;45.642;13.756;2024-01-30T03:19:47;5.10;99.90
35647;DHT22;28680;45.642;13.756;2024-01-30T03:22:13;5.00;99.90
35647;DHT22;28680;45.642;13.756;2024-01-30T03:24:39;5.10;99.90
35647;DHT22;28680;45.642;13.756;2024-01-30T03:27:04;5.10;99.90
35647;DHT22;28680;45.642;13.756;2024-01-30T03:29:30;5.10;99.90
35647;DHT22;28680;45.642;13.756;2024-01-30T03:31:56;5.10;99.90
35647;DHT22;28680;45.642;13.756;2024-01-30T03:34:22;5.10;99.90
35647;DHT22;28680;45.642;13.756;2024-01-30T03:36:48;5.20;99.90
35647;DHT22;28680;45.642;13.756;2024-01-30T03:39:13;5.10;99.90
35647;DHT22;28680;45.642;13.756;2024-01-30T03:41:42;5.10;99.90
35647;DHT22;28680;45.642;13.756;2024-01-30T03:44:08;5.10;99.90
35647;DHT22;28680;45.642;13.756;2024-01-30T03:46:34;5.00;99.90
35647;DHT22;28680;45.642;13.756;2024-01-30T03:49:00;5.00;99.90
35647;DHT22;28680;45.642;13.756;2024-01-30T03:51:26;5.00;99.90
35647;DHT22;28680;45.642;13.756;2024-01-30T03:53:51;4.90;99.90
35647;DHT22;28680;45.642;13.756;2024-01-30T03:56:17;4.80;99.90
35647;DHT22;28680;45.642;13.756;2024-01-30T03:58:43;4.70;99.90
35647;DHT22;28680;45.642;13.756;2024-01-30T04:01:13;4.70;99.90
35647;DHT22;28680;45.642;13.756;2024-01-30T04:03:39;4.60;99.90
35647;DHT22;28680;45.642;13.756;2024-01-30T04:06:05;4.60;99.90
35647;DHT22;28680;45.642;13.756;2024-01-30T04:08:31;4.60;99.90
35647;DHT22;28680;45.642;13.756;2024-01-30T04:10:56;4.60;99.90
35647;DHT22;28680;45.642;13.756;2024-01-30T04:13:22;4.60;99.90
35647;DHT22;28680;45.642;13.756;2024-01-30T04:15:48;4.60;99.90
35647;DHT22;28680;45.642;13.756;2024-01-30T04:18:14;4.60;99.90
35647;DHT22;28680;45.642;13.756;2024-01-30T04:20:39;4.60;99.90
35647;DHT22;28680;45.642;13.756;2024-01-30T04:23:05;4.60;99.90
35647;DHT22;28680;45.642;13.756;2024-01-30T04:25:31;4.60;99.90
35647;DHT22;28680;45.642;13.756;2024-01-30T04:27:57;4.50;99.90
35647;DHT22;28680;45.642;13.756;2024-01-30T04:30:23;4.60;99.90
35647;DHT22;28680;45.642;13.756;2024-01-30T04:32:49;4.60;99.90
35647;DHT22;28680;45.642;13.756;2024-01-30T04:35:14;4.60;99.90
35647;DHT22;28680;45.642;13.756;2024-01-30T04:37:40;4.60;99.90
35647;DHT22;28680;45.642;13.756;2024-01-30T04:40:06;4.60;99.90
35647;DHT22;28680;45.642;13.756;2024-01-30T04:42:32;4.50;99.90
35647;DHT22;28680;45.642;13.756;2024-01-30T04:44:58;4.50;99.90
35647;DHT22;28680;45.642;13.756;2024-01-30T04:47:24;4.40;99.90
35647;DHT22;28680;45.642;13.756;2024-01-30T04:49:51;4.40;99.90
35647;DHT22;28680;45.642;13.756;2024-01-30T04:52:17;4.40;99.90
35647;DHT22;28680;45.642;13.756;2024-01-30T04:54:43;4.30;99.90
35647;DHT22;28680;45.642;13.756;2024-01-30T04:57:09;4.40;99.90
35647;DHT22;28680;45.642;13.756;2024-01-30T04:59:37;4.50;99.90
35647;DHT22;28680;45.642;13.756;2024-01-30T05:02:04;4.50;99.90
35647;DHT22;28680;45.642;13.756;2024-01-30T05:04:30;4.40;99.90
35647;DHT22;28680;45.642;13.756;2024-01-30T05:06:56;4.40;99.90
35647;DHT22;28680;45.642;13.756;2024-01-30T05:09:22;4.30;99.90
35647;DHT22;28680;45.642;13.756;2024-01-30T05:11:48;4.40;99.90
35647;DHT22;28680;45.642;13.756;2024-01-30T05:14:13;4.40;99.90
35647;DHT22;28680;45.642;13.756;2024-01-30T05:16:41;4.40;99.90
35647;DHT22;28680;45.642;13.756;2024-01-30T05:19:08;4.40;99.90
35647;DHT22;28680;45.642;13.756;2024-01-30T05:21:34;4.50;99.90
35647;DHT22;28680;45.642;13.756;2024-01-30T05:24:00;4.40;99.90
35647;DHT22;28680;45.642;13.756;2024-01-30T05:26:26;4.50;99.90
35647;DHT22;28680;45.642;13.756;2024-01-30T05:28:52;4.40;99.90
35647;DHT22;28680;45.642;13.756;2024-01-30T05:31:18;4.40;99.90
35647;DHT22;28680;45.642;13.756;2024-01-30T05:33:43;4.40;99.90
35647;DHT22;28680;45.642;13.756;2024-01-30T05:36:12;4.40;99.90
35647;DHT22;28680;45.642;13.756;2024-01-30T05:38:39;4.30;99.90
35647;DHT22;28680;45.642;13.756;2024-01-30T05:41:04;4.30;99.90
35647;DHT22;28680;45.642;13.756;2024-01-30T05:43:30;4.30;99.90
35647;DHT22;28680;45.642;13.756;2024-01-30T05:45:56;4.30;99.90
35647;DHT22;28680;45.642;13.756;2024-01-30T05:48:22;4.30;99.90
35647;DHT22;28680;45.642;13.756;2024-01-30T05:50:47;4.30;99.90
35647;DHT22;28680;45.642;13.756;2024-01-30T05:53:13;4.30;99.90
35647;DHT22;28680;45.642;13.756;2024-01-30T05:55:39;4.30;99.90
35647;DHT22;28680;45.642;13.756;2024-01-30T05:58:05;4.30;99.90
35647;DHT22;28680;45.642;13.756;2024-01-30T06:00:31;4.20;99.90
35647;DHT22;28680;45.642;13.756;2024-01-30T06:02:56;4.20;99.90
35647;DHT22;28680;45.642;13.756;2024-01-30T06:05:22;4.10;99.90
35647;DHT22;28680;45.642;13.756;2024-01-30T06:07:48;4.10;99.90
35647;DHT22;28680;45.642;13.756;2024-01-30T06:10:14;4.30;99.90
35647;DHT22;28680;45.642;13.756;2024-01-30T06:12:40;4.30;99.90
35647;DHT22;28680;45.642;13.756;2024-01-30T06:15:07;4.30;99.90
35647;DHT22;28680;45.642;13.756;2024-01-30T06:17:33;4.30;99.90
35647;DHT22;28680;45.642;13.756;2024-01-30T06:19:59;4.30;99.90
35647;DHT22;28680;45.642;13.756;2024-01-30T06:22:25;4.20;99.90
35647;DHT22;28680;45.642;13.756;2024-01-30T06:24:50;4.10;99.90
35647;DHT22;28680;45.642;13.756;2024-01-30T06:27:16;4.10;99.90
35647;DHT22;28680;45.642;13.756;2024-01-30T06:29:43;4.10;99.90
35647;DHT22;28680;45.642;13.756;2024-01-30T06:32:09;4.10;99.90
35647;DHT22;28680;45.642;13.756;2024-01-30T06:34:35;4.10;99.90
35647;DHT22;28680;45.642;13.756;2024-01-30T06:37:00;4.10;99.90
35647;DHT22;28680;45.642;13.756;2024-01-30T06:39:27;4.20;99.90
35647;DHT22;28680;45.642;13.756;2024-01-30T06:41:52;4.20;99.90
35647;DHT22;28680;45.642;13.756;2024-01-30T06:44:18;4.20;99.90
35647;DHT22;28680;45.642;13.756;2024-01-30T06:46:44;4.30;99.90
35647;DHT22;28680;45.642;13.756;2024-01-30T06:49:10;4.20;99.90
35647;DHT22;28680;45.642;13.756;2024-01-30T06:51:35;4.30;99.90
35647;DHT22;28680;45.642;13.756;2024-01-30T06:54:01;4.30;99.90
35647;DHT22;28680;45.642;13.756;2024-01-30T06:56:28;4.40;99.90
35647;DHT22;28680;45.642;13.756;2024-01-30T06:58:53;4.10;99.90
35647;DHT22;28680;45.642;13.756;2024-01-30T07:01:19;4.40;99.90
35647;DHT22;28680;45.642;13.756;2024-01-30T07:03:46;4.40;99.90
35647;DHT22;28680;45.642;13.756;2024-01-30T07:06:12;4.40;99.90
35647;DHT22;28680;45.642;13.756;2024-01-30T07:08:38;4.30;99.90
35647;DHT22;28680;45.642;13.756;2024-01-30T07:11:06;4.50;99.90
35647;DHT22;28680;45.642;13.756;2024-01-30T07:13:34;4.60;99.90
35647;DHT22;28680;45.642;13.756;2024-01-30T07:16:00;4.70;99.90
35647;DHT22;28680;45.642;13.756;2024-01-30T07:18:26;4.70;99.90
35647;DHT22;28680;45.642;13.756;2024-01-30T07:20:52;4.70;99.90
35647;DHT22;28680;45.642;13.756;2024-01-30T07:23:17;4.70;99.90
35647;DHT22;28680;45.642;13.756;2024-01-30T07:25:44;4.80;99.90
35647;DHT22;28680;45.642;13.756;2024-01-30T07:28:11;4.90;99.90
35647;DHT22;28680;45.642;13.756;2024-01-30T07:30:38;4.90;99.90
35647;DHT22;28680;45.642;13.756;2024-01-30T07:33:04;4.90;99.90
35647;DHT22;28680;45.642;13.756;2024-01-30T07:35:30;5.00;99.90
35647;DHT22;28680;45.642;13.756;2024-01-30T07:37:56;5.00;99.90
35647;DHT22;28680;45.642;13.756;2024-01-30T07:40:23;5.00;99.90
35647;DHT22;28680;45.642;13.756;2024-01-30T07:42:49;5.20;99.90
35647;DHT22;28680;45.642;13.756;2024-01-30T07:45:15;5.70;99.90
35647;DHT22;28680;45.642;13.756;2024-01-30T07:47:41;6.30;99.90
35647;DHT22;28680;45.642;13.756;2024-01-30T07:50:08;6.80;99.90
35647;DHT22;28680;45.642;13.756;2024-01-30T07:52:34;7.10;99.90
35647;DHT22;28680;45.642;13.756;2024-01-30T07:55:00;6.90;99.90
35647;DHT22;28680;45.642;13.756;2024-01-30T07:57:27;6.50;99.90
35647;DHT22;28680;45.642;13.756;2024-01-30T07:59:53;6.80;99.90
35647;DHT22;28680;45.642;13.756;2024-01-30T08:02:18;7.40;99.90
35647;DHT22;28680;45.642;13.756;2024-01-30T08:04:44;7.90;99.90
35647;DHT22;28680;45.642;13.756;2024-01-30T08:07:14;8.40;99.90
35647;DHT22;28680;45.642;13.756;2024-01-30T08:09:40;8.70;99.90
35647;DHT22;28680;45.642;13.756;2024-01-30T08:12:06;9.10;99.90
35647;DHT22;28680;45.642;13.756;2024-01-30T08:14:31;9.40;99.90
35647;DHT22;28680;45.642;13.756;2024-01-30T08:16:57;9.60;99.90
35647;DHT22;28680;45.642;13.756;2024-01-30T08:19:23;9.80;99.90
35647;DHT22;28680;45.642;13.756;2024-01-30T08:21:49;10.10;99.90
35647;DHT22;28680;45.642;13.756;2024-01-30T08:24:14;10.40;99.90
35647;DHT22;28680;45.642;13.756;2024-01-30T08:26:40;10.50;99.90
35647;DHT22;28680;45.642;13.756;2024-01-30T08:29:06;10.70;99.90
35647;DHT22;28680;45.642;13.756;2024-01-30T08:31:32;10.90;99.90
35647;DHT22;28680;45.642;13.756;2024-01-30T08:33:57;11.10;99.90
35647;DHT22;28680;45.642;13.756;2024-01-30T08:36:25;11.40;99.90
35647;DHT22;28680;45.642;13.756;2024-01-30T08:38:54;11.70;99.90
35647;DHT22;28680;45.642;13.756;2024-01-30T08:41:19;11.90;99.90
35647;DHT22;28680;45.642;13.756;2024-01-30T08:43:45;12.10;99.90
35647;DHT22;28680;45.642;13.756;2024-01-30T08:46:11;12.40;99.90
35647;DHT22;28680;45.642;13.756;2024-01-30T08:48:37;12.60;99.90
35647;DHT22;28680;45.642;13.756;2024-01-30T08:51:03;12.90;99.90
35647;DHT22;28680;45.642;13.756;2024-01-30T08:53:29;12.90;99.90
35647;DHT22;28680;45.642;13.756;2024-01-30T08:55:55;13.10;99.90
35647;DHT22;28680;45.642;13.756;2024-01-30T08:58:21;13.30;99.90
35647;DHT22;28680;45.642;13.756;2024-01-30T09:00:46;13.50;99.90
35647;DHT22;28680;45.642;13.756;2024-01-30T09:03:12;14.00;99.90
35647;DHT22;28680;45.642;13.756;2024-01-30T09:05:41;14.00;99.90
35647;DHT22;28680;45.642;13.756;2024-01-30T09:08:07;14.10;99.90
35647;DHT22;28680;45.642;13.756;2024-01-30T09:10:33;14.20;99.90
35647;DHT22;28680;45.642;13.756;2024-01-30T09:12:58;14.20;99.90
35647;DHT22;28680;45.642;13.756;2024-01-30T09:15:24;14.20;99.90
35647;DHT22;28680;45.642;13.756;2024-01-30T09:17:50;14.20;99.90
35647;DHT22;28680;45.642;13.756;2024-01-30T09:20:16;14.40;99.90
35647;DHT22;28680;45.642;13.756;2024-01-30T09:22:41;14.40;99.90
35647;DHT22;28680;45.642;13.756;2024-01-30T09:25:07;14.60;99.90
35647;DHT22;28680;45.642;13.756;2024-01-30T09:27:33;14.70;99.90
35647;DHT22;28680;45.642;13.756;2024-01-30T09:29:59;14.80;99.90
35647;DHT22;28680;45.642;13.756;2024-01-30T09:32:25;14.90;99.90
35647;DHT22;28680;45.642;13.756;2024-01-30T09:34:50;15.00;99.90
35647;DHT22;28680;45.642;13.756;2024-01-30T09:37:16;15.10;99.90
35647;DHT22;28680;45.642;13.756;2024-01-30T09:39:43;15.30;99.90
35647;DHT22;28680;45.642;13.756;2024-01-30T09:42:20;15.60;99.90
35647;DHT22;28680;45.642;13.756;2024-01-30T09:44:51;15.70;99.90
35647;DHT22;28680;45.642;13.756;2024-01-30T09:47:20;15.50;99.90
35647;DHT22;28680;45.642;13.756;2024-01-30T09:49:46;15.40;99.90
35647;DHT22;28680;45.642;13.756;2024-01-30T09:52:12;15.40;99.90
35647;DHT22;28680;45.642;13.756;2024-01-30T09:54:38;15.50;99.90
35647;DHT22;28680;45.642;13.756;2024-01-30T09:57:05;15.60;99.90
35647;DHT22;28680;45.642;13.756;2024-01-30T09:59:31;15.50;99.90
35647;DHT22;28680;45.642;13.756;2024-01-30T10:01:57;15.40;99.90
35647;DHT22;28680;45.642;13.756;2024-01-30T10:04:23;15.90;99.90
35647;DHT22;28680;45.642;13.756;2024-01-30T10:06:50;16.20;99.90
35647;DHT22;28680;45.642;13.756;2024-01-30T10:09:16;16.50;99.90
35647;DHT22;28680;45.642;13.756;2024-01-30T10:11:42;16.80;99.90
35647;DHT22;28680;45.642;13.756;2024-01-30T10:14:08;17.10;99.90
35647;DHT22;28680;45.642;13.756;2024-01-30T10:16:35;17.30;99.90
35647;DHT22;28680;45.642;13.756;2024-01-30T10:19:01;17.50;99.90
35647;DHT22;28680;45.642;13.756;2024-01-30T10:21:29;17.30;99.90
35647;DHT22;28680;45.642;13.756;2024-01-30T10:23:55;17.70;99.90
35647;DHT22;28680;45.642;13.756;2024-01-30T10:26:21;17.90;99.90
35647;DHT22;28680;45.642;13.756;2024-01-30T10:28:48;17.90;99.90
35647;DHT22;28680;45.642;13.756;2024-01-30T10:31:18;17.80;99.90
35647;DHT22;28680;45.642;13.756;2024-01-30T10:33:44;17.80;99.90
35647;DHT22;28680;45.642;13.756;2024-01-30T10:36:13;18.00;99.90
35647;DHT22;28680;45.642;13.756;2024-01-30T10:38:42;18.00;99.90
35647;DHT22;28680;45.642;13.756;2024-01-30T10:41:10;18.50;99.90
35647;DHT22;28680;45.642;13.756;2024-01-30T10:43:41;18.30;99.90
35647;DHT22;28680;45.642;13.756;2024-01-30T10:46:29;17.80;99.90
35647;DHT22;28680;45.642;13.756;2024-01-30T10:48:59;17.70;99.90
35647;DHT22;28680;45.642;13.756;2024-01-30T10:51:28;17.20;99.90
35647;DHT22;28680;45.642;13.756;2024-01-30T10:53:55;16.70;99.90
35647;DHT22;28680;45.642;13.756;2024-01-30T10:56:22;16.80;99.90
35647;DHT22;28680;45.642;13.756;2024-01-30T10:58:53;17.10;99.90
35647;DHT22;28680;45.642;13.756;2024-01-30T11:01:22;17.40;99.90
35647;DHT22;28680;45.642;13.756;2024-01-30T11:03:51;17.60;99.90
35647;DHT22;28680;45.642;13.756;2024-01-30T11:06:17;18.00;99.90
35647;DHT22;28680;45.642;13.756;2024-01-30T11:08:45;18.20;99.90
35647;DHT22;28680;45.642;13.756;2024-01-30T11:11:11;18.70;99.90
35647;DHT22;28680;45.642;13.756;2024-01-30T11:13:37;19.20;99.90
35647;DHT22;28680;45.642;13.756;2024-01-30T11:16:04;19.70;99.90
35647;DHT22;28680;45.642;13.756;2024-01-30T11:18:31;20.10;99.90
35647;DHT22;28680;45.642;13.756;2024-01-30T11:21:00;20.10;99.90
35647;DHT22;28680;45.642;13.756;2024-01-30T11:23:30;20.00;99.90
35647;DHT22;28680;45.642;13.756;2024-01-30T11:25:56;20.50;99.90
35647;DHT22;28680;45.642;13.756;2024-01-30T11:28:23;20.40;99.90
35647;DHT22;28680;45.642;13.756;2024-01-30T11:30:49;20.60;99.90
35647;DHT22;28680;45.642;13.756;2024-01-30T11:33:28;20.90;99.90
35647;DHT22;28680;45.642;13.756;2024-01-30T11:35:57;21.30;99.90
35647;DHT22;28680;45.642;13.756;2024-01-30T11:38:26;21.30;99.90
35647;DHT22;28680;45.642;13.756;2024-01-30T11:40:54;21.50;99.90
35647;DHT22;28680;45.642;13.756;2024-01-30T11:43:20;21.10;99.90
35647;DHT22;28680;45.642;13.756;2024-01-30T11:45:46;20.90;99.90
35647;DHT22;28680;45.642;13.756;2024-01-30T11:48:12;20.80;99.90
35647;DHT22;28680;45.642;13.756;2024-01-30T11:50:39;20.90;99.90
35647;DHT22;28680;45.642;13.756;2024-01-30T11:53:06;20.80;99.90
35647;DHT22;28680;45.642;13.756;2024-01-30T11:55:34;20.50;99.90
35647;DHT22;28680;45.642;13.756;2024-01-30T11:58:03;20.60;99.90
35647;DHT22;28680;45.642;13.756;2024-01-30T12:00:29;21.00;99.90
35647;DHT22;28680;45.642;13.756;2024-01-30T12:02:56;21.20;99.90
35647;DHT22;28680;45.642;13.756;2024-01-30T12:05:23;21.30;99.90
35647;DHT22;28680;45.642;13.756;2024-01-30T12:07:49;21.80;99.90
35647;DHT22;28680;45.642;13.756;2024-01-30T12:10:15;22.10;99.90
35647;DHT22;28680;45.642;13.756;2024-01-30T12:12:45;22.30;99.90
35647;DHT22;28680;45.642;13.756;2024-01-30T12:15:11;22.20;99.90
35647;DHT22;28680;45.642;13.756;2024-01-30T12:17:37;22.20;99.90
35647;DHT22;28680;45.642;13.756;2024-01-30T12:20:14;21.70;99.90
35647;DHT22;28680;45.642;13.756;2024-01-30T12:22:42;21.40;99.90
35647;DHT22;28680;45.642;13.756;2024-01-30T12:25:12;21.30;99.90
35647;DHT22;28680;45.642;13.756;2024-01-30T12:27:39;21.50;99.90
35647;DHT22;28680;45.642;13.756;2024-01-30T12:30:09;21.70;99.90
35647;DHT22;28680;45.642;13.756;2024-01-30T12:32:36;21.30;99.90
35647;DHT22;28680;45.642;13.756;2024-01-30T12:35:03;21.60;99.90
35647;DHT22;28680;45.642;13.756;2024-01-30T12:37:30;21.50;99.90
35647;DHT22;28680;45.642;13.756;2024-01-30T12:39:57;21.20;99.90
35647;DHT22;28680;45.642;13.756;2024-01-30T12:42:23;21.00;99.90
35647;DHT22;28680;45.642;13.756;2024-01-30T12:44:49;21.00;99.90
35647;DHT22;28680;45.642;13.756;2024-01-30T12:47:15;20.80;99.90
35647;DHT22;28680;45.642;13.756;2024-01-30T12:49:44;20.70;99.90
35647;DHT22;28680;45.642;13.756;2024-01-30T12:52:11;20.30;99.90
35647;DHT22;28680;45.642;13.756;2024-01-30T12:54:37;19.90;99.90
35647;DHT22;28680;45.642;13.756;2024-01-30T12:57:04;20.30;99.90
35647;DHT22;28680;45.642;13.756;2024-01-30T12:59:30;20.40;99.90
35647;DHT22;28680;45.642;13.756;2024-01-30T13:01:56;20.60;99.90
35647;DHT22;28680;45.642;13.756;2024-01-30T13:04:22;20.40;99.90
35647;DHT22;28680;45.642;13.756;2024-01-30T13:06:48;20.20;99.90
35647;DHT22;28680;45.642;13.756;2024-01-30T13:09:15;20.10;99.90
35647;DHT22;28680;45.642;13.756;2024-01-30T13:11:41;20.40;99.90
35647;DHT22;28680;45.642;13.756;2024-01-30T13:14:07;20.30;99.90
35647;DHT22;28680;45.642;13.756;2024-01-30T13:16:33;20.40;99.90
35647;DHT22;28680;45.642;13.756;2024-01-30T13:18:59;20.10;99.90
35647;DHT22;28680;45.642;13.756;2024-01-30T13:21:26;20.10;99.90
35647;DHT22;28680;45.642;13.756;2024-01-30T13:23:52;20.30;99.90
35647;DHT22;28680;45.642;13.756;2024-01-30T13:26:22;20.60;99.90
35647;DHT22;28680;45.642;13.756;2024-01-30T13:28:48;21.20;99.90
35647;DHT22;28680;45.642;13.756;2024-01-30T13:31:14;21.10;99.90
35647;DHT22;28680;45.642;13.756;2024-01-30T13:33:40;20.70;99.90
35647;DHT22;28680;45.642;13.756;2024-01-30T13:36:11;20.60;99.90
35647;DHT22;28680;45.642;13.756;2024-01-30T13:38:37;20.40;99.90
35647;DHT22;28680;45.642;13.756;2024-01-30T13:41:04;20.30;99.90
35647;DHT22;28680;45.642;13.756;2024-01-30T13:43:30;21.00;99.90
35647;DHT22;28680;45.642;13.756;2024-01-30T13:45:56;21.30;99.90
35647;DHT22;28680;45.642;13.756;2024-01-30T13:48:22;21.20;99.90
35647;DHT22;28680;45.642;13.756;2024-01-30T13:50:48;21.40;99.90
35647;DHT22;28680;45.642;13.756;2024-01-30T13:53:13;21.40;99.90
35647;DHT22;28680;45.642;13.756;2024-01-30T13:55:39;21.10;99.90
35647;DHT22;28680;45.642;13.756;2024-01-30T13:58:06;20.70;99.90
35647;DHT22;28680;45.642;13.756;2024-01-30T14:00:32;20.50;99.90
35647;DHT22;28680;45.642;13.756;2024-01-30T14:03:08;20.00;99.90
35647;DHT22;28680;45.642;13.756;2024-01-30T14:05:33;19.70;99.90
35647;DHT22;28680;45.642;13.756;2024-01-30T14:08:03;19.40;99.90
35647;DHT22;28680;45.642;13.756;2024-01-30T14:10:33;18.80;99.90
35647;DHT22;28680;45.642;13.756;2024-01-30T14:13:02;17.90;99.90
35647;DHT22;28680;45.642;13.756;2024-01-30T14:15:28;18.10;99.90
35647;DHT22;28680;45.642;13.756;2024-01-30T14:17:57;17.20;99.90
35647;DHT22;28680;45.642;13.756;2024-01-30T14:20:23;16.30;99.90
35647;DHT22;28680;45.642;13.756;2024-01-30T14:22:49;15.80;99.90
35647;DHT22;28680;45.642;13.756;2024-01-30T14:25:14;15.60;99.90
35647;DHT22;28680;45.642;13.756;2024-01-30T14:27:42;15.20;99.90
35647;DHT22;28680;45.642;13.756;2024-01-30T14:30:10;15.10;99.90
35647;DHT22;28680;45.642;13.756;2024-01-30T14:32:36;14.80;99.90
35647;DHT22;28680;45.642;13.756;2024-01-30T14:35:04;14.90;99.90
35647;DHT22;28680;45.642;13.756;2024-01-30T14:37:30;14.90;99.90
35647;DHT22;28680;45.642;13.756;2024-01-30T14:39:56;14.60;99.90
35647;DHT22;28680;45.642;13.756;2024-01-30T14:42:22;14.40;99.90
35647;DHT22;28680;45.642;13.756;2024-01-30T14:44:48;14.80;99.90
35647;DHT22;28680;45.642;13.756;2024-01-30T14:47:14;15.30;99.90
35647;DHT22;28680;45.642;13.756;2024-01-30T14:49:41;15.00;99.90
35647;DHT22;28680;45.642;13.756;2024-01-30T14:52:07;14.70;99.90
35647;DHT22;28680;45.642;13.756;2024-01-30T14:54:33;14.80;99.90
35647;DHT22;28680;45.642;13.756;2024-01-30T14:57:00;14.70;99.90
35647;DHT22;28680;45.642;13.756;2024-01-30T14:59:26;14.20;99.90
35647;DHT22;28680;45.642;13.756;2024-01-30T15:01:52;14.20;99.90
35647;DHT22;28680;45.642;13.756;2024-01-30T15:04:18;14.60;99.90
35647;DHT22;28680;45.642;13.756;2024-01-30T15:06:44;15.20;99.90
35647;DHT22;28680;45.642;13.756;2024-01-30T15:09:12;15.60;99.90
35647;DHT22;28680;45.642;13.756;2024-01-30T15:11:41;15.70;99.90
35647;DHT22;28680;45.642;13.756;2024-01-30T15:14:06;15.80;99.90
35647;DHT22;28680;45.642;13.756;2024-01-30T15:16:32;16.00;99.90
35647;DHT22;28680;45.642;13.756;2024-01-30T15:18:58;15.70;99.90
35647;DHT22;28680;45.642;13.756;2024-01-30T15:21:24;14.90;99.90
35647;DHT22;28680;45.642;13.756;2024-01-30T15:23:50;14.40;99.90
35647;DHT22;28680;45.642;13.756;2024-01-30T15:26:16;14.00;99.90
35647;DHT22;28680;45.642;13.756;2024-01-30T15:28:41;13.80;99.90
35647;DHT22;28680;45.642;13.756;2024-01-30T15:31:08;13.70;99.90
35647;DHT22;28680;45.642;13.756;2024-01-30T15:33:34;13.50;99.90
35647;DHT22;28680;45.642;13.756;2024-01-30T15:36:03;13.40;99.90
35647;DHT22;28680;45.642;13.756;2024-01-30T15:38:29;13.30;99.90
35647;DHT22;28680;45.642;13.756;2024-01-30T15:40:55;13.20;99.90
35647;DHT22;28680;45.642;13.756;2024-01-30T15:43:22;13.10;99.90
35647;DHT22;28680;45.642;13.756;2024-01-30T15:45:49;13.00;99.90
35647;DHT22;28680;45.642;13.756;2024-01-30T15:48:17;12.90;99.90